LLIB/RPN METAR and TAF weather

Enter ICAO airport designator
Station Type Date Time Source
LLIB METAR 2019/07/15 14:50 UTC NOAA

LLIB 151450Z 33012KT 300V360 9999 SCT035 29/17 Q1007


Station Type Date Time Source
LLIB Decoded METAR 2019/07/15 14:50 UTC NOAA

Galilee / Pina, Israel (LLIB) 32-58-48N 035-34-12E
Jul 15, 2019 - 10:50 AM EDT / 2019.07.15 1450 UTC
Wind: from the NNW (330 degrees) at 14 MPH (12 KT) (direction variable):0
Visibility: greater than 7 mile(s):0
Sky conditions: partly cloudy
Temperature: 84 F (29 C)
Dew Point: 62 F (17 C)
Relative Humidity: 48%
Pressure (altimeter): 29.74 in. Hg (1007 hPa)
ob: LLIB 151450Z 33012KT 300V360 9999 SCT035 29/17 Q1007
cycle: 15

Station Type Date Time Source
LLIB TAF 2019/07/15 12:18 UTC NOAA

TAF LLIB 151114Z 1512/1612 32010KT 9999 FEW035
BECMG 1518/1520 VRB04KT 9999 SCT020
BECMG 1606/1608 15006KT CAVOK TX34/1512Z TN20/1603Z

Example: see airport list